Time;durP1;ratioP1;P1;durP2;ratioP2;P2;SDS_P1;SDS_P2;PMS_P1;PMS_P2;Temp;Humidity;BMP_temperature;BMP_pressure;BME280_temperature;BME280_humidity;BME280_pressure;Samples;Min_cycle;Max_cycle;Signal;HPM_P1;HPM_P2
2022/04/08 00:01:47;;;;;;;9.35;8.20;;;13.00;99.90;;;;;;5029617;28;20683;-76
2022/04/08 00:04:14;;;;;;;10.15;8.25;;;13.10;99.90;;;;;;5035697;28;20628;-79
2022/04/08 00:06:42;;;;;;;10.52;7.45;;;13.00;99.90;;;;;;5031033;28;20227;-75
2022/04/08 00:09:09;;;;;;;9.25;7.32;;;13.00;99.90;;;;;;5034051;28;20211;-78
2022/04/08 00:11:36;;;;;;;11.77;8.85;;;12.90;99.90;;;;;;5029552;28;20239;-78
2022/04/08 00:14:04;;;;;;;13.60;10.10;;;12.80;99.90;;;;;;5028966;28;20227;-79
2022/04/08 00:16:31;;;;;;;11.65;9.25;;;12.90;99.90;;;;;;5029941;28;20229;-76
2022/04/08 00:18:58;;;;;;;12.90;8.68;;;13.10;99.90;;;;;;5032345;28;20207;-76
2022/04/08 00:21:26;;;;;;;14.13;8.63;;;13.10;99.90;;;;;;5033012;28;20600;-76
2022/04/08 00:23:54;;;;;;;11.55;9.55;;;13.00;99.90;;;;;;5033358;28;20223;-76
2022/04/08 00:26:21;;;;;;;11.07;8.80;;;13.00;99.90;;;;;;5032487;28;20231;-78
2022/04/08 00:28:48;;;;;;;12.05;8.90;;;13.00;99.90;;;;;;5032506;28;20195;-76
2022/04/08 00:31:15;;;;;;;9.65;7.82;;;13.00;99.90;;;;;;5032385;28;20220;-76
2022/04/08 00:33:42;;;;;;;9.43;7.53;;;12.90;99.90;;;;;;5031103;28;20758;-77
2022/04/08 00:36:09;;;;;;;13.00;11.30;;;12.90;99.90;;;;;;5030431;28;20236;-76
2022/04/08 00:38:36;;;;;;;13.30;11.20;;;12.90;99.90;;;;;;5033286;28;20195;-79
2022/04/08 00:41:05;;;;;;;17.98;11.82;;;13.20;99.90;;;;;;5029072;28;20235;-76
2022/04/08 00:43:34;;;;;;;15.63;11.70;;;13.40;99.90;;;;;;5032847;28;20224;-76
2022/04/08 00:46:02;;;;;;;13.77;10.23;;;13.60;99.90;;;;;;5036214;28;21002;-76
2022/04/08 00:48:29;;;;;;;10.18;8.40;;;13.60;99.90;;;;;;5036521;28;20234;-75
2022/04/08 00:50:56;;;;;;;9.73;8.32;;;13.30;99.90;;;;;;5035978;28;20222;-76
2022/04/08 00:53:24;;;;;;;9.13;7.68;;;13.10;99.90;;;;;;5034625;28;20219;-77
2022/04/08 00:55:51;;;;;;;8.63;7.10;;;12.90;99.90;;;;;;5033188;28;20365;-78
2022/04/08 00:58:20;;;;;;;11.00;8.18;;;12.80;99.90;;;;;;5037344;28;20195;-75
2022/04/08 01:00:47;;;;;;;10.32;7.90;;;12.60;99.90;;;;;;5028155;28;20305;-75
2022/04/08 01:03:14;;;;;;;11.43;7.88;;;12.40;99.90;;;;;;5032412;28;20249;-75
2022/04/08 01:05:42;;;;;;;15.05;12.05;;;12.30;99.90;;;;;;5030455;28;20725;-75
2022/04/08 01:08:11;;;;;;;11.88;10.40;;;12.60;99.90;;;;;;5034148;28;20207;-77
2022/04/08 01:10:39;;;;;;;10.52;8.43;;;12.90;99.90;;;;;;5026554;28;20827;-76
2022/04/08 01:13:06;;;;;;;8.80;7.80;;;12.90;99.90;;;;;;5034439;28;20955;-76
2022/04/08 01:15:35;;;;;;;12.10;7.93;;;12.80;99.90;;;;;;5032714;28;20587;-76
2022/04/08 01:18:05;;;;;;;10.40;7.75;;;12.70;99.90;;;;;;5032559;28;20281;-77
2022/04/08 01:20:32;;;;;;;14.23;9.75;;;12.50;99.90;;;;;;5026505;28;20250;-76
2022/04/08 01:22:59;;;;;;;13.55;10.25;;;12.50;99.90;;;;;;5030397;28;20207;-77
2022/04/08 01:25:28;;;;;;;11.57;10.20;;;12.60;99.90;;;;;;5030413;28;20759;-76
2022/04/08 01:27:55;;;;;;;10.07;8.70;;;12.70;99.90;;;;;;5031319;28;20192;-78
2022/04/08 01:30:23;;;;;;;10.82;8.27;;;12.60;99.90;;;;;;5030463;28;20207;-78
2022/04/08 01:32:50;;;;;;;10.07;7.80;;;12.50;99.90;;;;;;5027274;28;20288;-76
2022/04/08 01:35:17;;;;;;;7.75;6.82;;;12.40;99.90;;;;;;5034425;28;20783;-78
2022/04/08 01:37:44;;;;;;;10.60;7.85;;;12.50;99.90;;;;;;5028296;28;20206;-78
2022/04/08 01:40:12;;;;;;;8.35;7.15;;;12.40;99.90;;;;;;5039399;28;20196;-77
2022/04/08 01:42:40;;;;;;;11.07;7.30;;;12.30;99.90;;;;;;5034581;28;20207;-77
2022/04/08 01:45:09;;;;;;;7.45;6.03;;;12.30;99.90;;;;;;5032021;28;20756;-76
2022/04/08 01:47:36;;;;;;;6.72;5.90;;;12.20;99.90;;;;;;5030814;28;20265;-76
2022/04/08 01:50:04;;;;;;;6.90;6.20;;;12.20;99.90;;;;;;5028520;28;20288;-76
2022/04/08 01:52:31;;;;;;;10.45;7.53;;;12.20;99.90;;;;;;5031050;28;20215;-78
2022/04/08 01:54:58;;;;;;;12.65;8.35;;;12.10;99.90;;;;;;5032554;28;20224;-76
2022/04/08 01:57:25;;;;;;;6.93;6.00;;;12.10;99.90;;;;;;5036380;28;20215;-77
2022/04/08 01:59:54;;;;;;;8.60;5.70;;;12.00;99.90;;;;;;5034090;28;20207;-77
2022/04/08 02:02:21;;;;;;;6.57;5.70;;;12.00;99.90;;;;;;5026545;28;20226;-76
2022/04/08 02:04:48;;;;;;;6.88;6.05;;;11.90;99.90;;;;;;5032398;28;20274;-76
2022/04/08 02:07:15;;;;;;;6.15;5.45;;;11.80;99.90;;;;;;5027785;28;20277;-76
2022/04/08 02:09:42;;;;;;;6.90;6.20;;;11.80;99.90;;;;;;5030655;28;20208;-76
2022/04/08 02:12:10;;;;;;;7.07;6.15;;;11.90;99.90;;;;;;5030054;28;20223;-78
2022/04/08 02:14:38;;;;;;;9.10;6.82;;;11.90;99.90;;;;;;5026014;28;20219;-76
2022/04/08 02:17:06;;;;;;;9.10;8.20;;;11.90;99.90;;;;;;5033811;28;20219;-81
2022/04/08 02:19:33;;;;;;;7.50;6.30;;;12.00;99.90;;;;;;5036123;28;20203;-77
2022/04/08 02:22:00;;;;;;;6.53;5.65;;;12.00;99.90;;;;;;5031996;28;20219;-77
2022/04/08 02:24:28;;;;;;;7.95;6.25;;;12.00;99.90;;;;;;5036326;28;20215;-76
2022/04/08 02:26:55;;;;;;;6.40;5.80;;;11.90;99.90;;;;;;5031248;28;20230;-76
2022/04/08 02:29:23;;;;;;;8.07;6.57;;;11.80;99.90;;;;;;5030079;28;20210;-76
2022/04/08 02:31:50;;;;;;;6.03;5.43;;;11.70;99.90;;;;;;5033128;28;21075;-77
2022/04/08 02:34:18;;;;;;;8.73;5.93;;;11.60;99.90;;;;;;5033605;28;20297;-77
2022/04/08 02:36:46;;;;;;;9.73;6.75;;;11.60;99.90;;;;;;5035246;28;20817;-77
2022/04/08 02:39:13;;;;;;;8.30;7.22;;;11.50;99.90;;;;;;5030988;28;20195;-76
2022/04/08 02:41:40;;;;;;;8.07;6.68;;;11.50;99.90;;;;;;5029907;28;20777;-77
2022/04/08 02:46:42;;;;;;;7.47;6.28;;;11.50;99.90;;;;;;5045138;22;20219;-75
2022/04/08 02:49:09;;;;;;;6.30;5.70;;;11.50;99.90;;;;;;5024523;28;20496;-76
2022/04/08 02:51:38;;;;;;;7.68;6.32;;;11.40;99.90;;;;;;5023910;28;20219;-76
2022/04/08 02:54:05;;;;;;;6.82;5.55;;;11.40;99.90;;;;;;5022379;28;20253;-75
2022/04/08 02:56:32;;;;;;;6.70;6.00;;;11.30;99.90;;;;;;5009128;28;20355;-74
2022/04/08 02:59:00;;;;;;;5.20;4.70;;;11.20;99.90;;;;;;5005188;28;20274;-76
2022/04/08 03:01:27;;;;;;;6.95;5.25;;;11.20;99.90;;;;;;5007179;28;20577;-75
2022/04/08 03:03:54;;;;;;;5.95;5.32;;;11.20;99.90;;;;;;5010635;28;20192;-74
2022/04/08 03:06:21;;;;;;;8.15;5.13;;;11.10;99.90;;;;;;5005618;28;20236;-75
2022/04/08 03:08:50;;;;;;;7.78;5.80;;;11.10;99.90;;;;;;5007441;28;20196;-75
2022/04/08 03:11:17;;;;;;;6.25;5.35;;;11.00;99.90;;;;;;5007556;28;20504;-75
2022/04/08 03:13:44;;;;;;;6.65;5.57;;;11.00;99.90;;;;;;5005495;28;20709;-75
2022/04/08 03:16:11;;;;;;;5.07;4.57;;;10.90;99.90;;;;;;5000898;28;20235;-75
2022/04/08 03:18:38;;;;;;;5.40;4.90;;;10.90;99.90;;;;;;5004271;28;20199;-75
2022/04/08 03:21:05;;;;;;;5.85;4.80;;;10.90;99.90;;;;;;5010269;28;20216;-74
2022/04/08 03:23:32;;;;;;;5.70;5.20;;;10.90;99.90;;;;;;5003355;28;20677;-75
2022/04/08 03:26:01;;;;;;;5.82;5.22;;;10.80;99.90;;;;;;5000031;28;20224;-76
2022/04/08 03:28:30;;;;;;;8.00;6.13;;;10.80;99.90;;;;;;5012887;28;20209;-75
2022/04/08 03:30:57;;;;;;;5.85;5.30;;;10.70;99.90;;;;;;5009276;28;21747;-74
2022/04/08 03:33:24;;;;;;;5.85;5.25;;;10.70;99.90;;;;;;5007624;28;20236;-73
2022/04/08 03:35:51;;;;;;;6.13;5.38;;;10.60;99.90;;;;;;5013957;28;20701;-75
2022/04/08 03:38:18;;;;;;;6.50;5.90;;;10.60;99.90;;;;;;5009522;28;20208;-75
2022/04/08 03:40:47;;;;;;;6.32;4.80;;;10.50;99.90;;;;;;5015735;28;20513;-76
2022/04/08 03:43:15;;;;;;;6.15;5.55;;;10.40;99.90;;;;;;5011741;28;20227;-76
2022/04/08 03:45:42;;;;;;;5.70;5.20;;;10.40;99.90;;;;;;5008765;28;20318;-75
2022/04/08 03:48:09;;;;;;;5.63;5.07;;;10.30;99.90;;;;;;5007778;28;20774;-75
2022/04/08 03:50:36;;;;;;;5.88;5.38;;;10.20;99.90;;;;;;5007685;28;20203;-74
2022/04/08 03:53:03;;;;;;;5.57;5.07;;;10.10;99.90;;;;;;5012120;28;20216;-75
2022/04/08 03:55:30;;;;;;;6.18;5.35;;;10.10;99.90;;;;;;5011572;28;20286;-75
2022/04/08 03:57:57;;;;;;;6.95;5.45;;;10.00;99.90;;;;;;5009272;28;20227;-76
2022/04/08 04:00:26;;;;;;;6.68;5.97;;;10.10;99.90;;;;;;5012528;28;20192;-75
2022/04/08 04:02:53;;;;;;;5.93;5.30;;;10.00;99.90;;;;;;5010296;28;20225;-75
2022/04/08 04:05:20;;;;;;;5.93;5.32;;;9.90;99.90;;;;;;5012292;28;20220;-75
2022/04/08 04:07:47;;;;;;;5.93;4.90;;;9.90;99.90;;;;;;5007442;28;20243;-74
2022/04/08 04:10:15;;;;;;;5.45;4.70;;;9.90;99.90;;;;;;5009974;28;20200;-75
2022/04/08 04:12:42;;;;;;;5.18;4.68;;;9.90;99.90;;;;;;5006855;28;20226;-75
2022/04/08 04:15:10;;;;;;;5.30;4.80;;;9.90;99.90;;;;;;5008159;28;20687;-74
2022/04/08 04:17:38;;;;;;;6.93;5.70;;;9.90;99.90;;;;;;5007949;28;20231;-75
2022/04/08 04:20:06;;;;;;;5.72;5.15;;;9.90;99.90;;;;;;5008540;28;20251;-76
2022/04/08 04:22:33;;;;;;;6.60;5.82;;;10.00;99.90;;;;;;5009209;28;20295;-76
2022/04/08 04:25:00;;;;;;;6.97;6.10;;;10.00;99.90;;;;;;5007550;28;20294;-76
2022/04/08 04:27:27;;;;;;;6.10;5.53;;;10.00;99.90;;;;;;5008786;28;20216;-76
2022/04/08 04:29:54;;;;;;;7.00;6.28;;;10.00;99.90;;;;;;5005681;28;20204;-75
2022/04/08 04:32:21;;;;;;;6.50;5.82;;;10.00;99.90;;;;;;5009056;28;20609;-75
2022/04/08 04:34:50;;;;;;;7.05;6.43;;;9.90;99.90;;;;;;5010604;28;20289;-76
2022/04/08 04:37:17;;;;;;;7.15;6.40;;;9.90;99.90;;;;;;5008558;28;20224;-76
2022/04/08 04:39:44;;;;;;;6.82;6.13;;;9.90;99.90;;;;;;5010342;28;20695;-75
2022/04/08 04:42:11;;;;;;;7.82;7.03;;;9.90;99.90;;;;;;5009456;28;20224;-76
2022/04/08 04:44:38;;;;;;;7.03;6.13;;;9.90;99.90;;;;;;5005369;28;20773;-75
2022/04/08 04:47:06;;;;;;;6.32;5.70;;;9.90;99.90;;;;;;5013593;28;20286;-76
2022/04/08 04:49:33;;;;;;;6.43;5.45;;;9.90;99.90;;;;;;5014491;28;20203;-76
2022/04/08 04:52:01;;;;;;;7.55;6.80;;;9.90;99.90;;;;;;5014968;28;20227;-76
2022/04/08 04:54:28;;;;;;;7.43;6.63;;;9.80;99.90;;;;;;5009530;28;20220;-75
2022/04/08 04:56:55;;;;;;;7.90;6.90;;;9.80;99.90;;;;;;5010793;28;20216;-76
2022/04/08 04:59:22;;;;;;;7.50;6.78;;;9.70;99.90;;;;;;5009660;28;20205;-74
2022/04/08 05:01:49;;;;;;;6.78;5.82;;;9.70;99.90;;;;;;5011780;28;20223;-76
2022/04/08 05:04:16;;;;;;;7.82;6.93;;;9.70;99.90;;;;;;5007764;28;20219;-74
2022/04/08 05:06:43;;;;;;;7.15;6.45;;;9.70;99.90;;;;;;5007407;28;20749;-75
2022/04/08 05:09:11;;;;;;;6.30;5.70;;;9.70;99.90;;;;;;5008186;28;20204;-77
2022/04/08 05:11:38;;;;;;;7.63;6.63;;;9.70;99.90;;;;;;5006933;28;20223;-75
2022/04/08 05:14:06;;;;;;;6.70;5.70;;;9.70;99.90;;;;;;5005746;28;20227;-77
2022/04/08 05:16:33;;;;;;;6.60;5.80;;;9.70;99.90;;;;;;5010621;28;20223;-75
2022/04/08 05:19:00;;;;;;;7.78;6.35;;;9.70;99.90;;;;;;5006795;28;20551;-75
2022/04/08 05:21:29;;;;;;;6.65;5.75;;;9.70;99.90;;;;;;5008567;28;20264;-75
2022/04/08 05:23:56;;;;;;;5.70;5.20;;;9.70;99.90;;;;;;5004819;28;20287;-75
2022/04/08 05:26:24;;;;;;;5.53;5.07;;;9.80;99.90;;;;;;5007543;28;20275;-75
2022/04/08 05:28:51;;;;;;;6.10;4.82;;;9.90;99.90;;;;;;5007986;28;20513;-75
2022/04/08 05:31:18;;;;;;;5.15;4.65;;;10.00;99.90;;;;;;5006267;28;20686;-75
2022/04/08 05:33:45;;;;;;;5.13;4.63;;;10.20;99.90;;;;;;5008315;28;20263;-75
2022/04/08 05:36:12;;;;;;;5.60;5.03;;;10.40;99.90;;;;;;5005928;28;20220;-76
2022/04/08 05:38:39;;;;;;;5.40;4.88;;;10.60;99.90;;;;;;5015192;28;20613;-75
2022/04/08 05:41:06;;;;;;;4.97;4.47;;;10.80;99.90;;;;;;5009360;28;20192;-75
2022/04/08 05:43:35;;;;;;;5.95;4.88;;;11.10;99.90;;;;;;5013131;28;20717;-77
2022/04/08 05:46:02;;;;;;;8.82;5.90;;;11.20;99.90;;;;;;5006879;28;20232;-77
2022/04/08 05:48:29;;;;;;;6.00;5.05;;;11.20;99.90;;;;;;5013494;28;20251;-77
2022/04/08 05:50:56;;;;;;;5.38;4.95;;;11.40;99.90;;;;;;5006930;28;20433;-77
2022/04/08 05:53:26;;;;;;;5.95;5.43;;;11.60;99.90;;;;;;5013233;28;20617;-77
2022/04/08 05:55:53;;;;;;;4.95;4.45;;;11.80;99.90;;;;;;5009136;28;20694;-77
2022/04/08 05:58:20;;;;;;;5.25;4.75;;;11.90;99.90;;;;;;5007137;28;20220;-77
2022/04/08 06:00:49;;;;;;;6.90;4.65;;;12.00;99.90;;;;;;5009288;28;20192;-77
2022/04/08 06:03:16;;;;;;;5.78;4.60;;;12.20;99.90;;;;;;5010509;28;20706;-78
2022/04/08 06:05:43;;;;;;;5.32;4.82;;;12.50;99.90;;;;;;5013205;28;20682;-77
2022/04/08 06:08:10;;;;;;;5.07;4.57;;;12.80;99.90;;;;;;5008722;28;20219;-78
2022/04/08 06:10:37;;;;;;;5.20;4.45;;;13.00;99.90;;;;;;5009479;28;20208;-79
2022/04/08 06:13:04;;;;;;;5.20;4.70;;;13.20;99.90;;;;;;5014559;28;20282;-78
2022/04/08 06:15:32;;;;;;;5.22;4.65;;;13.40;99.90;;;;;;5008099;28;20243;-76
2022/04/08 06:18:00;;;;;;;5.38;4.88;;;13.70;99.90;;;;;;5008328;28;20306;-77
2022/04/08 06:20:27;;;;;;;5.53;4.97;;;13.90;99.90;;;;;;5008121;28;20250;-78
2022/04/08 06:22:55;;;;;;;6.10;4.90;;;14.10;99.90;;;;;;5003707;28;20224;-77
2022/04/08 06:25:24;;;;;;;6.53;5.15;;;14.50;99.90;;;;;;5002416;28;20224;-77
2022/04/08 06:27:58;;;;;;;5.07;4.57;;;14.70;99.90;;;;;;5004240;28;20315;-76
2022/04/08 06:30:26;;;;;;;6.03;5.43;;;14.90;99.90;;;;;;5010448;28;20198;-78
2022/04/08 06:32:53;;;;;;;6.35;5.75;;;14.90;99.90;;;;;;5009961;28;20219;-77
2022/04/08 06:35:22;;;;;;;6.57;5.85;;;14.90;99.90;;;;;;5011499;28;20224;-77
2022/04/08 06:37:49;;;;;;;6.35;5.75;;;15.10;99.90;;;;;;5005826;28;20220;-77
2022/04/08 06:40:17;;;;;;;6.15;5.40;;;15.20;99.90;;;;;;5012451;28;20197;-77
2022/04/08 06:42:44;;;;;;;6.32;5.68;;;15.20;99.90;;;;;;5013780;28;20702;-75
2022/04/08 06:45:11;;;;;;;8.90;5.90;;;15.40;99.90;;;;;;5011243;28;20228;-76
2022/04/08 06:47:50;;;;;;;9.82;6.47;;;15.50;99.90;;;;;;5000362;28;20221;-77
2022/04/08 06:50:18;;;;;;;7.63;5.97;;;15.70;99.90;;;;;;5010037;28;20580;-79
2022/04/08 06:52:47;;;;;;;9.27;7.00;;;15.80;99.90;;;;;;5011614;28;20274;-79
2022/04/08 06:55:14;;;;;;;9.05;6.20;;;15.90;99.90;;;;;;5006895;28;20271;-78
2022/04/08 06:57:42;;;;;;;10.85;6.88;;;16.00;99.90;;;;;;5009266;28;20639;-78
2022/04/08 07:00:11;;;;;;;8.90;7.05;;;16.10;99.90;;;;;;5009549;28;20200;-79
2022/04/08 07:02:39;;;;;;;7.95;7.22;;;16.10;99.90;;;;;;5015156;28;20321;-78
2022/04/08 07:05:07;;;;;;;13.35;8.35;;;16.00;99.90;;;;;;5018000;28;20605;-79
2022/04/08 07:07:35;;;;;;;10.93;7.40;;;16.00;99.90;;;;;;5015343;28;20702;-77
2022/04/08 07:10:04;;;;;;;9.27;8.38;;;16.20;99.90;;;;;;5016677;28;20196;-79
2022/04/08 07:12:31;;;;;;;8.55;7.65;;;16.40;99.90;;;;;;5016595;28;20230;-79
2022/04/08 07:14:58;;;;;;;8.48;6.90;;;16.60;99.90;;;;;;5012122;28;20680;-78
2022/04/08 07:17:29;;;;;;;8.32;6.93;;;16.90;99.90;;;;;;5013328;28;20231;-79
2022/04/08 07:19:56;;;;;;;8.95;7.18;;;16.80;99.90;;;;;;5018755;28;20691;-78
2022/04/08 07:22:24;;;;;;;7.90;6.28;;;16.80;99.90;;;;;;5007791;28;20224;-80
2022/04/08 07:24:51;;;;;;;7.68;6.90;;;16.80;99.90;;;;;;5017951;28;20216;-78
2022/04/08 07:27:20;;;;;;;7.80;6.53;;;16.90;99.90;;;;;;5012526;28;20223;-79
2022/04/08 07:29:48;;;;;;;8.02;7.20;;;16.70;99.90;;;;;;5006184;28;20192;-78
2022/04/08 07:32:20;;;;;;;9.95;6.85;;;16.60;99.90;;;;;;5008634;28;20754;-77
2022/04/08 07:34:48;;;;;;;9.68;6.65;;;16.60;99.90;;;;;;5007464;28;20220;-79
2022/04/08 07:37:16;;;;;;;7.50;6.63;;;16.60;99.90;;;;;;5009810;28;20534;-77
2022/04/08 07:39:43;;;;;;;7.13;6.45;;;16.60;99.90;;;;;;5006196;28;20262;-75
2022/04/08 07:42:10;;;;;;;9.00;7.30;;;16.80;99.90;;;;;;5010186;28;20204;-78
2022/04/08 07:44:39;;;;;;;6.97;6.28;;;16.60;99.90;;;;;;5005644;28;20252;-78
2022/04/08 07:47:07;;;;;;;7.82;6.50;;;16.10;99.90;;;;;;5008765;28;20247;-78
2022/04/08 07:49:34;;;;;;;7.88;7.07;;;16.10;99.90;;;;;;5012231;28;20202;-78
2022/04/08 07:52:01;;;;;;;10.25;7.30;;;16.20;99.90;;;;;;5006620;28;20196;-77
2022/04/08 07:54:28;;;;;;;6.70;5.95;;;16.50;99.90;;;;;;5001030;28;20746;-79
2022/04/08 07:56:55;;;;;;;8.15;6.50;;;16.50;99.90;;;;;;5007143;28;20192;-78
2022/04/08 07:59:22;;;;;;;6.95;6.22;;;16.50;99.90;;;;;;5009135;28;20228;-77
2022/04/08 08:01:50;;;;;;;6.47;5.85;;;16.60;99.90;;;;;;5007067;28;20749;-77
2022/04/08 08:04:17;;;;;;;6.82;6.10;;;16.60;99.90;;;;;;5004901;28;20224;-78
2022/04/08 08:06:44;;;;;;;6.72;5.70;;;16.20;99.90;;;;;;5004798;28;20286;-78
2022/04/08 08:09:11;;;;;;;7.32;6.25;;;15.70;99.90;;;;;;5007364;28;20604;-79
2022/04/08 08:11:39;;;;;;;7.95;6.00;;;15.50;99.90;;;;;;5005442;28;20196;-79
2022/04/08 08:14:06;;;;;;;6.57;5.88;;;15.50;99.90;;;;;;5011323;28;20228;-75
2022/04/08 08:16:34;;;;;;;6.78;6.13;;;15.60;99.90;;;;;;5012700;28;20232;-77
2022/04/08 08:19:03;;;;;;;7.72;6.63;;;15.50;99.90;;;;;;5008775;28;20311;-78
2022/04/08 08:21:30;;;;;;;7.32;6.63;;;15.30;99.90;;;;;;5015091;28;20530;-76
2022/04/08 08:23:57;;;;;;;7.18;6.45;;;15.10;99.90;;;;;;5006622;28;20267;-78
2022/04/08 08:26:24;;;;;;;6.57;5.82;;;14.90;99.90;;;;;;5008048;28;20599;-78
2022/04/08 08:28:52;;;;;;;8.07;5.90;;;14.90;99.90;;;;;;5011785;28;20216;-75
2022/04/08 08:31:19;;;;;;;6.63;5.90;;;15.00;99.90;;;;;;5006346;28;20280;-77
2022/04/08 08:33:47;;;;;;;13.52;6.13;;;15.50;99.90;;;;;;5011225;28;20220;-77
2022/04/08 08:36:15;;;;;;;7.28;5.78;;;16.30;99.90;;;;;;5006693;28;20353;-78
2022/04/08 08:38:43;;;;;;;7.30;5.85;;;16.70;99.90;;;;;;5008420;28;20238;-76
2022/04/08 08:41:11;;;;;;;6.88;6.18;;;16.90;99.90;;;;;;4998817;28;20201;-78
2022/04/08 08:43:38;;;;;;;6.93;6.32;;;17.10;99.90;;;;;;5011601;28;20224;-78
2022/04/08 08:46:07;;;;;;;7.63;6.30;;;17.10;99.90;;;;;;5043162;22;20676;-76
2022/04/08 08:48:35;;;;;;;7.00;6.30;;;16.90;99.90;;;;;;5022456;28;20219;-74
2022/04/08 08:51:04;;;;;;;11.13;6.60;;;16.80;99.90;;;;;;5022195;28;20226;-75
2022/04/08 08:53:34;;;;;;;7.20;6.60;;;17.10;99.90;;;;;;5023389;28;20219;-77
2022/04/08 08:56:02;;;;;;;7.13;6.43;;;17.10;99.90;;;;;;5019431;28;20239;-74
2022/04/08 08:58:29;;;;;;;7.32;6.63;;;17.20;99.90;;;;;;5018526;28;20739;-75
2022/04/08 09:00:56;;;;;;;8.32;5.97;;;17.50;99.90;;;;;;5020962;28;20296;-75
2022/04/08 09:03:29;;;;;;;8.60;7.00;;;17.40;99.90;;;;;;5014382;28;20223;-75
2022/04/08 09:06:05;;;;;;;7.85;6.38;;;17.70;99.90;;;;;;5018114;28;20211;-75
2022/04/08 09:08:35;;;;;;;7.78;6.97;;;18.00;99.90;;;;;;5019416;28;20226;-75
2022/04/08 09:11:03;;;;;;;8.68;7.55;;;18.10;99.90;;;;;;5012806;28;20253;-75
2022/04/08 09:13:30;;;;;;;7.88;7.07;;;18.00;99.90;;;;;;5021751;28;20227;-76
2022/04/08 09:15:58;;;;;;;8.73;7.88;;;18.10;99.90;;;;;;5017005;28;20227;-76
2022/04/08 09:18:30;;;;;;;9.57;8.23;;;18.20;99.90;;;;;;5020083;28;20228;-76
2022/04/08 09:20:58;;;;;;;8.55;7.65;;;18.10;99.90;;;;;;5021537;28;20299;-75
2022/04/08 09:23:28;;;;;;;8.27;7.32;;;18.40;99.90;;;;;;5016288;28;20813;-75
2022/04/08 09:26:02;;;;;;;7.95;7.15;;;18.30;99.90;;;;;;5019686;28;20220;-78
2022/04/08 09:28:34;;;;;;;11.52;8.48;;;18.30;99.90;;;;;;5019623;28;20242;-75
2022/04/08 09:31:02;;;;;;;7.18;6.47;;;18.10;99.90;;;;;;5020138;28;20306;-76
2022/04/08 09:33:30;;;;;;;9.10;7.30;;;18.00;99.90;;;;;;5021826;28;20265;-76
2022/04/08 09:35:58;;;;;;;12.43;8.45;;;17.90;99.90;;;;;;5014510;28;20238;-76
2022/04/08 09:38:27;;;;;;;9.48;7.95;;;17.80;99.90;;;;;;5017425;28;20219;-76
2022/04/08 09:41:02;;;;;;;13.43;8.05;;;17.90;99.90;;;;;;5016195;28;20196;-78
2022/04/08 09:43:34;;;;;;;8.90;7.30;;;18.00;99.90;;;;;;5013972;28;20262;-77
2022/04/08 09:46:15;;;;;;;9.18;8.27;;;18.20;99.90;;;;;;5017948;28;20357;-77
2022/04/08 09:48:42;;;;;;;10.27;7.88;;;18.70;99.90;;;;;;5020082;28;20270;-76
2022/04/08 09:51:10;;;;;;;9.00;8.10;;;18.90;99.90;;;;;;5017839;28;20205;-76
2022/04/08 09:53:38;;;;;;;8.52;7.60;;;19.10;99.90;;;;;;5016022;28;20706;-76
2022/04/08 09:56:13;;;;;;;9.90;8.10;;;19.20;99.90;;;;;;5019020;28;20227;-75
2022/04/08 09:58:44;;;;;;;10.52;8.20;;;19.10;99.90;;;;;;5019857;28;20297;-75
2022/04/08 10:01:11;;;;;;;11.60;6.90;;;19.20;99.90;;;;;;5023481;28;20196;-76
2022/04/08 10:03:38;;;;;;;8.32;7.22;;;19.60;99.90;;;;;;5019168;28;20220;-74
2022/04/08 10:06:06;;;;;;;10.63;7.97;;;20.00;99.90;;;;;;5021111;28;20702;-75
2022/04/08 10:08:34;;;;;;;11.50;9.50;;;20.30;99.90;;;;;;5015827;28;20226;-75
2022/04/08 10:11:10;;;;;;;9.60;7.50;;;20.60;99.90;;;;;;5019145;28;20294;-75
2022/04/08 10:13:52;;;;;;;7.75;6.95;;;20.30;99.90;;;;;;5019208;28;20218;-74
2022/04/08 10:16:20;;;;;;;11.73;7.85;;;20.60;99.90;;;;;;5017058;28;20243;-74
2022/04/08 10:18:48;;;;;;;9.02;7.22;;;20.90;99.90;;;;;;5021761;28;20216;-75
2022/04/08 10:21:16;;;;;;;10.07;7.45;;;20.90;99.90;;;;;;5018782;28;20717;-74
2022/04/08 10:23:49;;;;;;;9.43;7.28;;;20.80;99.90;;;;;;5024275;28;20246;-75
2022/04/08 10:26:23;;;;;;;8.93;8.02;;;20.60;99.90;;;;;;5023338;28;20306;-75
2022/04/08 10:28:52;;;;;;;11.80;8.95;;;20.40;99.90;;;;;;5021082;28;20273;-75
2022/04/08 10:31:22;;;;;;;8.75;7.85;;;20.50;99.90;;;;;;5022971;28;20199;-75
2022/04/08 10:33:51;;;;;;;9.10;8.15;;;20.50;99.90;;;;;;5020159;28;20223;-75
2022/04/08 10:36:18;;;;;;;9.15;8.25;;;20.50;99.90;;;;;;5020855;28;20227;-74
2022/04/08 10:38:45;;;;;;;10.52;9.20;;;20.20;99.90;;;;;;5020357;28;20211;-75
2022/04/08 10:41:12;;;;;;;10.77;9.10;;;20.10;99.90;;;;;;5018944;28;20212;-73
2022/04/08 10:43:49;;;;;;;9.30;8.27;;;19.90;99.90;;;;;;5027882;28;20273;-74
2022/04/08 10:46:29;;;;;;;10.90;8.48;;;20.00;99.90;;;;;;5027326;28;20755;-71
2022/04/08 10:48:57;;;;;;;10.82;7.97;;;20.30;99.90;;;;;;5017140;28;20413;-71
2022/04/08 10:51:24;;;;;;;11.88;9.05;;;20.50;99.90;;;;;;5023376;28;20625;-75
2022/04/08 10:53:51;;;;;;;9.55;8.30;;;20.40;99.90;;;;;;5020663;28;20316;-75
2022/04/08 10:56:18;;;;;;;10.35;8.70;;;20.30;99.90;;;;;;5022757;28;20231;-74
2022/04/08 10:58:49;;;;;;;10.38;8.65;;;20.30;99.90;;;;;;5016784;28;20220;-75
2022/04/08 11:01:18;;;;;;;8.85;7.78;;;20.30;99.90;;;;;;5022734;28;20569;-75
2022/04/08 11:03:47;;;;;;;8.63;7.38;;;20.10;99.90;;;;;;5023693;28;20227;-75
2022/04/08 11:06:16;;;;;;;15.73;8.02;;;20.00;99.90;;;;;;5018478;28;20227;-75
2022/04/08 11:08:44;;;;;;;9.18;6.90;;;20.30;99.90;;;;;;5024684;28;20402;-75
2022/04/08 11:11:11;;;;;;;11.32;7.72;;;20.40;99.90;;;;;;5019263;28;20279;-75
2022/04/08 11:13:41;;;;;;;8.25;7.30;;;20.50;99.90;;;;;;5018216;28;20221;-75
2022/04/08 11:16:10;;;;;;;10.60;7.72;;;20.50;99.90;;;;;;5021393;28;20225;-75
2022/04/08 11:18:37;;;;;;;10.00;7.82;;;20.60;99.90;;;;;;5022689;28;20216;-75
2022/04/08 11:21:04;;;;;;;12.27;7.30;;;20.60;99.90;;;;;;5020991;28;20215;-76
2022/04/08 11:23:33;;;;;;;9.38;7.57;;;20.40;99.90;;;;;;5022208;28;20606;-76
2022/04/08 11:26:01;;;;;;;9.43;6.35;;;20.50;99.90;;;;;;5021428;28;20613;-75
2022/04/08 11:28:28;;;;;;;8.00;7.20;;;20.80;99.90;;;;;;5019294;28;20246;-75
2022/04/08 11:30:56;;;;;;;9.77;7.53;;;20.70;99.90;;;;;;5023936;28;20254;-75
2022/04/08 11:33:26;;;;;;;9.50;7.63;;;20.80;99.90;;;;;;5017504;28;20220;-75
2022/04/08 11:35:58;;;;;;;7.82;6.00;;;21.10;99.90;;;;;;5023356;28;20698;-75
2022/04/08 11:38:26;;;;;;;11.25;6.55;;;21.40;99.90;;;;;;5021689;28;20401;-76
2022/04/08 11:40:53;;;;;;;8.73;6.30;;;21.40;99.90;;;;;;5026584;28;20200;-76
2022/04/08 11:43:21;;;;;;;11.45;6.57;;;21.50;99.90;;;;;;5018504;28;20223;-76
2022/04/08 11:45:50;;;;;;;9.30;6.30;;;21.30;99.90;;;;;;5017427;28;20227;-75
2022/04/08 11:48:19;;;;;;;6.47;5.68;;;21.30;99.90;;;;;;5015176;28;20258;-75
2022/04/08 11:50:48;;;;;;;8.13;6.35;;;21.30;99.90;;;;;;5024858;28;20513;-75
2022/04/08 11:53:17;;;;;;;8.25;6.07;;;21.20;99.90;;;;;;5021530;28;20203;-74
2022/04/08 11:55:56;;;;;;;9.90;6.40;;;21.00;99.90;;;;;;5025617;28;20705;-75
2022/04/08 11:58:23;;;;;;;10.55;5.90;;;21.00;99.90;;;;;;5021929;28;20247;-75
2022/04/08 12:00:51;;;;;;;9.82;5.72;;;21.00;99.90;;;;;;5025192;28;20253;-75
2022/04/08 12:03:21;;;;;;;6.22;5.15;;;21.00;99.90;;;;;;5021013;28;20204;-75
2022/04/08 12:05:50;;;;;;;8.48;5.03;;;21.00;99.90;;;;;;5019497;28;20254;-75
2022/04/08 12:08:18;;;;;;;7.30;5.18;;;21.20;99.90;;;;;;5025659;28;20203;-75
2022/04/08 12:10:46;;;;;;;6.00;4.50;;;21.30;99.90;;;;;;5022142;28;20198;-75
2022/04/08 12:13:15;;;;;;;10.32;4.90;;;21.20;99.90;;;;;;5018786;28;20204;-73
2022/04/08 12:15:43;;;;;;;8.13;5.10;;;21.20;99.90;;;;;;5024650;28;20281;-74
2022/04/08 12:18:10;;;;;;;8.05;4.90;;;21.20;99.90;;;;;;5021495;28;20539;-75
2022/04/08 12:20:39;;;;;;;10.80;4.40;;;21.20;99.90;;;;;;5018857;28;20284;-74
2022/04/08 12:23:10;;;;;;;7.80;4.55;;;21.10;99.90;;;;;;5019210;28;20533;-74
2022/04/08 12:25:38;;;;;;;5.78;4.68;;;21.20;99.90;;;;;;5043532;28;20317;-75
2022/04/08 12:28:12;;;;;;;6.72;4.78;;;21.20;99.90;;;;;;5046521;28;20198;-75
2022/04/08 12:30:39;;;;;;;5.20;4.20;;;21.00;99.90;;;;;;5023598;28;20286;-75
2022/04/08 12:33:06;;;;;;;6.72;4.25;;;21.10;99.90;;;;;;5019930;28;20600;-75
2022/04/08 12:35:34;;;;;;;5.07;4.57;;;21.20;99.90;;;;;;5057868;28;20242;-75
2022/04/08 12:38:04;;;;;;;5.57;4.35;;;21.20;99.90;;;;;;5041999;28;20211;-75
2022/04/08 12:40:33;;;;;;;5.50;4.50;;;21.20;99.90;;;;;;5045086;28;20827;-75
2022/04/08 12:43:01;;;;;;;8.18;4.40;;;21.20;99.90;;;;;;5046287;28;20323;-75
2022/04/08 12:45:29;;;;;;;6.45;4.57;;;21.10;99.90;;;;;;5044551;28;20306;-75
2022/04/08 12:47:56;;;;;;;5.03;4.10;;;21.10;99.90;;;;;;5048373;28;20757;-75
2022/04/08 12:50:24;;;;;;;9.00;4.20;;;21.00;99.90;;;;;;5045652;28;20223;-75
2022/04/08 12:52:51;;;;;;;7.57;3.60;;;20.90;99.90;;;;;;5048345;28;20199;-75